EWG6GT EDDL-LOWG
Flight info
| Callsign | EWG6GT |
|---|---|
| Flight time | 1h 12m |
| Altitude | 35000 |
| Route | DODEN7Z DODEN Y853 BOMBI DCT ESATI/N0443F370 DCT BARSU DCT MOOCE DCT RUDNO DCT LAMSI DCT LEOBE LEOBE2M |
| Aircraft | A319/M-SDE3FGHIRWY/LB1 |
Departure
| Time | 2026-05-08 12:51 |
|---|---|
| Airport | Düsseldorf Airport (EDDL) |
Arrival
| Time | 2026-05-08 14:04 |
|---|---|
| Airport | Graz Airport (LOWG) |
| Time | Latitude | Longitude | Altitude | Speed | Heading |
|---|---|---|---|---|---|
| 2026-05-08 12:23 | 51.28109 | 6.76547 | 115 ft | 0 kts | 96° |
| 2026-05-08 12:45 | 51.28109 | 6.76535 | 114 ft | 3 kts | 96° |
| 2026-05-08 12:45 | 51.28111 | 6.76503 | 116 ft | 3 kts | 92° |
| 2026-05-08 12:45 | 51.28111 | 6.76471 | 115 ft | 3 kts | 85° |
| 2026-05-08 12:45 | 51.28108 | 6.76440 | 115 ft | 3 kts | 67° |
| 2026-05-08 12:46 | 51.28099 | 6.76417 | 115 ft | 3 kts | 22° |
| 2026-05-08 12:46 | 51.28093 | 6.76413 | 116 ft | 0 kts | 6° |
| 2026-05-08 12:49 | 51.28098 | 6.76413 | 115 ft | 3 kts | 359° |
| 2026-05-08 12:49 | 51.28136 | 6.76340 | 115 ft | 11 kts | 295° |
| 2026-05-08 12:49 | 51.28189 | 6.76245 | 116 ft | 12 kts | 319° |
| 2026-05-08 12:49 | 51.28192 | 6.76112 | 118 ft | 13 kts | 279° |
| 2026-05-08 12:50 | 51.28243 | 6.76048 | 118 ft | 0 kts | 349° |
| 2026-05-08 12:50 | 51.28254 | 6.76045 | 118 ft | 6 kts | 351° |
| 2026-05-08 12:50 | 51.28346 | 6.76059 | 118 ft | 18 kts | 18° |
| 2026-05-08 12:51 | 51.28453 | 6.76228 | 116 ft | 40 kts | 52° |
| 2026-05-08 12:51 | 51.29437 | 6.78308 | 248 ft | 172 kts | 54° |
| 2026-05-08 12:51 | 51.30198 | 6.79899 | 776 ft | 183 kts | 52° |
| 2026-05-08 12:52 | 51.30985 | 6.81506 | 1443 ft | 186 kts | 52° |
| 2026-05-08 12:52 | 51.32724 | 6.85180 | 2172 ft | 230 kts | 53° |
| 2026-05-08 12:52 | 51.33732 | 6.87341 | 2705 ft | 252 kts | 53° |
| 2026-05-08 12:53 | 51.34751 | 6.89673 | 3625 ft | 260 kts | 59° |
| 2026-05-08 12:53 | 51.35270 | 6.92451 | 4555 ft | 267 kts | 89° |
| 2026-05-08 12:53 | 51.35054 | 6.95409 | 5532 ft | 270 kts | 100° |
| 2026-05-08 12:53 | 51.34743 | 6.98384 | 6548 ft | 273 kts | 101° |
| 2026-05-08 12:54 | 51.34429 | 7.01395 | 7458 ft | 277 kts | 100° |
| 2026-05-08 12:54 | 51.34112 | 7.04457 | 8344 ft | 282 kts | 100° |
| 2026-05-08 12:54 | 51.33792 | 7.07576 | 9222 ft | 287 kts | 100° |
| 2026-05-08 12:54 | 51.33471 | 7.10755 | 10074 ft | 292 kts | 100° |
| 2026-05-08 12:55 | 51.33085 | 7.14021 | 10546 ft | 310 kts | 106° |
| 2026-05-08 12:55 | 51.32276 | 7.17340 | 10846 ft | 329 kts | 119° |
| 2026-05-08 12:55 | 51.30988 | 7.20407 | 11483 ft | 336 kts | 131° |
| 2026-05-08 12:55 | 51.29354 | 7.23106 | 12205 ft | 340 kts | 137° |
| 2026-05-08 12:56 | 51.27661 | 7.25774 | 12956 ft | 344 kts | 137° |
| 2026-05-08 12:56 | 51.25952 | 7.28470 | 13699 ft | 348 kts | 137° |
| 2026-05-08 12:56 | 51.24221 | 7.31199 | 14366 ft | 352 kts | 137° |
| 2026-05-08 12:56 | 51.22470 | 7.33962 | 15015 ft | 356 kts | 137° |
| 2026-05-08 12:57 | 51.20725 | 7.36716 | 15647 ft | 360 kts | 137° |
| 2026-05-08 12:57 | 51.18913 | 7.39565 | 16279 ft | 364 kts | 137° |
| 2026-05-08 12:57 | 51.17122 | 7.42374 | 16904 ft | 368 kts | 137° |
| 2026-05-08 12:57 | 51.15289 | 7.45250 | 17527 ft | 372 kts | 137° |
| 2026-05-08 12:58 | 51.13429 | 7.48136 | 18168 ft | 376 kts | 137° |
| 2026-05-08 12:58 | 51.11537 | 7.51036 | 18748 ft | 380 kts | 138° |
| 2026-05-08 12:58 | 51.09619 | 7.53953 | 19332 ft | 382 kts | 138° |
| 2026-05-08 12:58 | 51.07690 | 7.56882 | 19942 ft | 384 kts | 138° |
| 2026-05-08 12:59 | 51.05751 | 7.59823 | 20546 ft | 387 kts | 138° |
| 2026-05-08 12:59 | 51.03797 | 7.62790 | 21116 ft | 390 kts | 138° |
| 2026-05-08 12:59 | 51.01827 | 7.65785 | 21696 ft | 393 kts | 138° |
| 2026-05-08 12:59 | 50.99848 | 7.68791 | 22276 ft | 395 kts | 138° |
| 2026-05-08 13:00 | 50.97857 | 7.71816 | 22850 ft | 398 kts | 139° |
| 2026-05-08 13:00 | 50.95702 | 7.74588 | 23406 ft | 398 kts | 148° |
| 2026-05-08 13:00 | 50.93375 | 7.76916 | 23903 ft | 400 kts | 150° |
| 2026-05-08 13:00 | 50.90994 | 7.79254 | 24363 ft | 402 kts | 150° |
| 2026-05-08 13:01 | 50.88607 | 7.81592 | 24826 ft | 404 kts | 150° |
| 2026-05-08 13:01 | 50.86230 | 7.83920 | 25263 ft | 407 kts | 150° |
| 2026-05-08 13:01 | 50.83803 | 7.86299 | 25702 ft | 409 kts | 150° |
| 2026-05-08 13:01 | 50.81371 | 7.88685 | 26138 ft | 412 kts | 150° |
| 2026-05-08 13:02 | 50.78929 | 7.91082 | 26576 ft | 414 kts | 150° |
| 2026-05-08 13:02 | 50.76457 | 7.93506 | 27022 ft | 417 kts | 150° |
| 2026-05-08 13:02 | 50.74008 | 7.95904 | 27430 ft | 419 kts | 150° |
| 2026-05-08 13:02 | 50.71508 | 7.98348 | 27837 ft | 422 kts | 150° |
| 2026-05-08 13:03 | 50.68996 | 8.00797 | 28254 ft | 425 kts | 151° |
| 2026-05-08 13:03 | 50.66465 | 8.03258 | 28674 ft | 428 kts | 151° |
| 2026-05-08 13:03 | 50.63957 | 8.05695 | 29081 ft | 430 kts | 151° |
| 2026-05-08 13:03 | 50.61393 | 8.08185 | 29487 ft | 433 kts | 150° |
| 2026-05-08 13:04 | 50.58944 | 8.10984 | 29869 ft | 438 kts | 142° |
| 2026-05-08 13:04 | 50.56601 | 8.14080 | 30259 ft | 440 kts | 142° |
| 2026-05-08 13:04 | 50.54269 | 8.17153 | 30570 ft | 442 kts | 142° |
| 2026-05-08 13:04 | 50.51906 | 8.20258 | 30883 ft | 444 kts | 142° |
| 2026-05-08 13:05 | 50.49523 | 8.23378 | 31188 ft | 447 kts | 143° |
| 2026-05-08 13:05 | 50.47121 | 8.26517 | 31490 ft | 449 kts | 143° |
| 2026-05-08 13:05 | 50.44700 | 8.29671 | 31778 ft | 451 kts | 143° |
| 2026-05-08 13:05 | 50.42310 | 8.32778 | 32179 ft | 450 kts | 143° |
| 2026-05-08 13:06 | 50.39897 | 8.35917 | 32584 ft | 449 kts | 143° |
| 2026-05-08 13:06 | 50.37490 | 8.39044 | 32953 ft | 449 kts | 143° |
| 2026-05-08 13:06 | 50.35082 | 8.42169 | 33355 ft | 449 kts | 143° |
| 2026-05-08 13:06 | 50.32701 | 8.45257 | 33776 ft | 448 kts | 143° |
| 2026-05-08 13:07 | 50.30299 | 8.48371 | 34203 ft | 446 kts | 143° |
| 2026-05-08 13:07 | 50.27899 | 8.51476 | 34532 ft | 446 kts | 143° |
| 2026-05-08 13:07 | 50.25502 | 8.54572 | 34839 ft | 447 kts | 143° |
| 2026-05-08 13:07 | 50.23304 | 8.58034 | 35059 ft | 452 kts | 129° |
| 2026-05-08 13:08 | 50.21768 | 8.62261 | 35110 ft | 453 kts | 112° |
| 2026-05-08 13:08 | 50.20903 | 8.67004 | 35119 ft | 454 kts | 105° |
| 2026-05-08 13:08 | 50.19395 | 8.76598 | 35116 ft | 453 kts | 105° |
| 2026-05-08 13:09 | 50.17877 | 8.86157 | 35119 ft | 453 kts | 106° |
| 2026-05-08 13:09 | 50.16346 | 8.95666 | 35120 ft | 453 kts | 106° |
| 2026-05-08 13:10 | 50.14799 | 9.05173 | 35123 ft | 453 kts | 106° |
| 2026-05-08 13:10 | 50.13246 | 9.14695 | 35123 ft | 453 kts | 106° |
| 2026-05-08 13:11 | 50.11687 | 9.24234 | 35110 ft | 453 kts | 106° |
| 2026-05-08 13:11 | 50.10124 | 9.33705 | 35108 ft | 453 kts | 106° |
| 2026-05-08 13:12 | 50.08549 | 9.43176 | 35111 ft | 453 kts | 106° |
| 2026-05-08 13:12 | 50.06963 | 9.52701 | 35112 ft | 453 kts | 106° |
| 2026-05-08 13:13 | 50.05371 | 9.62208 | 35113 ft | 453 kts | 106° |
| 2026-05-08 13:13 | 50.03773 | 9.71665 | 35113 ft | 453 kts | 106° |
| 2026-05-08 13:14 | 50.02158 | 9.81174 | 35112 ft | 454 kts | 106° |
| 2026-05-08 13:14 | 50.00542 | 9.90624 | 35117 ft | 454 kts | 107° |
| 2026-05-08 13:15 | 49.98925 | 10.00062 | 35111 ft | 454 kts | 107° |
| 2026-05-08 13:15 | 49.97293 | 10.09538 | 35111 ft | 453 kts | 107° |
| 2026-05-08 13:16 | 49.95656 | 10.18962 | 35109 ft | 453 kts | 107° |
| 2026-05-08 13:16 | 49.94011 | 10.28418 | 35121 ft | 453 kts | 107° |
| 2026-05-08 13:17 | 49.92338 | 10.37852 | 35107 ft | 452 kts | 110° |
| 2026-05-08 13:17 | 49.89842 | 10.46704 | 35119 ft | 450 kts | 117° |
| 2026-05-08 13:18 | 49.87177 | 10.55524 | 35116 ft | 450 kts | 117° |
| 2026-05-08 13:18 | 49.84529 | 10.64281 | 35112 ft | 450 kts | 117° |
| 2026-05-08 13:19 | 49.81867 | 10.73074 | 35107 ft | 450 kts | 117° |
| 2026-05-08 13:19 | 49.79206 | 10.81817 | 35099 ft | 450 kts | 117° |
| 2026-05-08 13:20 | 49.76537 | 10.90547 | 35077 ft | 450 kts | 117° |
| 2026-05-08 13:20 | 49.73851 | 10.99296 | 35088 ft | 450 kts | 117° |
| 2026-05-08 13:21 | 49.71176 | 11.07997 | 35088 ft | 450 kts | 117° |
| 2026-05-08 13:21 | 49.68483 | 11.16725 | 35088 ft | 450 kts | 117° |
| 2026-05-08 13:22 | 49.65778 | 11.25460 | 35088 ft | 450 kts | 117° |
| 2026-05-08 13:22 | 49.63072 | 11.34159 | 35076 ft | 450 kts | 117° |
| 2026-05-08 13:23 | 49.60367 | 11.42833 | 35085 ft | 450 kts | 117° |
| 2026-05-08 13:23 | 49.57634 | 11.51532 | 35087 ft | 450 kts | 118° |
| 2026-05-08 13:24 | 49.55338 | 11.60444 | 35090 ft | 451 kts | 111° |
| 2026-05-08 13:24 | 49.53261 | 11.69594 | 35091 ft | 451 kts | 111° |
| 2026-05-08 13:25 | 49.51188 | 11.78659 | 35079 ft | 451 kts | 111° |
| 2026-05-08 13:25 | 49.49095 | 11.87775 | 35081 ft | 451 kts | 111° |
| 2026-05-08 13:26 | 49.46992 | 11.96895 | 35085 ft | 451 kts | 111° |
| 2026-05-08 13:26 | 49.44893 | 12.05948 | 35085 ft | 451 kts | 111° |
| 2026-05-08 13:27 | 49.42772 | 12.15059 | 35083 ft | 452 kts | 111° |
| 2026-05-08 13:27 | 49.40660 | 12.24102 | 35083 ft | 452 kts | 111° |
| 2026-05-08 13:28 | 49.38520 | 12.33219 | 35083 ft | 453 kts | 112° |
| 2026-05-08 13:28 | 49.36388 | 12.42262 | 35086 ft | 453 kts | 112° |
| 2026-05-08 13:29 | 49.34099 | 12.51282 | 35081 ft | 450 kts | 120° |
| 2026-05-08 13:29 | 49.30502 | 12.58939 | 35072 ft | 444 kts | 137° |
| 2026-05-08 13:30 | 49.26155 | 12.65688 | 35060 ft | 445 kts | 139° |
| 2026-05-08 13:30 | 49.21823 | 12.72404 | 35066 ft | 445 kts | 139° |
| 2026-05-08 13:31 | 49.17453 | 12.79153 | 35070 ft | 446 kts | 139° |
| 2026-05-08 13:31 | 49.13074 | 12.85887 | 35070 ft | 446 kts | 139° |
| 2026-05-08 13:32 | 49.08715 | 12.92584 | 35070 ft | 446 kts | 139° |
| 2026-05-08 13:32 | 49.04323 | 12.99325 | 35067 ft | 447 kts | 139° |
| 2026-05-08 13:33 | 48.99950 | 13.06022 | 35065 ft | 447 kts | 139° |
| 2026-05-08 13:33 | 48.95576 | 13.12695 | 35068 ft | 446 kts | 140° |
| 2026-05-08 13:34 | 48.91171 | 13.19392 | 35071 ft | 446 kts | 140° |
| 2026-05-08 13:34 | 48.86782 | 13.26042 | 35059 ft | 447 kts | 141° |
| 2026-05-08 13:35 | 48.82388 | 13.32687 | 35064 ft | 447 kts | 141° |
| 2026-05-08 13:35 | 48.77969 | 13.39361 | 35063 ft | 448 kts | 141° |
| 2026-05-08 13:36 | 48.73565 | 13.45993 | 35065 ft | 448 kts | 141° |
| 2026-05-08 13:36 | 48.69136 | 13.52645 | 35067 ft | 447 kts | 142° |
| 2026-05-08 13:37 | 48.64649 | 13.59132 | 35060 ft | 441 kts | 148° |
| 2026-05-08 13:37 | 48.59807 | 13.64705 | 35060 ft | 439 kts | 149° |
| 2026-05-08 13:38 | 48.54936 | 13.70304 | 35062 ft | 439 kts | 149° |
| 2026-05-08 13:38 | 48.50098 | 13.75874 | 35065 ft | 439 kts | 149° |
| 2026-05-08 13:39 | 48.46053 | 13.80516 | 35045 ft | 439 kts | 150° |
| 2026-05-08 13:39 | 48.40390 | 13.86982 | 35066 ft | 438 kts | 150° |
| 2026-05-08 13:40 | 48.38771 | 13.88829 | 34956 ft | 439 kts | 150° |
| 2026-05-08 13:40 | 48.36334 | 13.91603 | 34410 ft | 440 kts | 150° |
| 2026-05-08 13:40 | 48.33890 | 13.94383 | 33859 ft | 440 kts | 151° |
| 2026-05-08 13:40 | 48.31440 | 13.97164 | 33246 ft | 438 kts | 151° |
| 2026-05-08 13:41 | 48.29008 | 13.99923 | 32667 ft | 437 kts | 151° |
| 2026-05-08 13:41 | 48.26611 | 14.02640 | 32085 ft | 437 kts | 150° |
| 2026-05-08 13:41 | 48.24177 | 14.05399 | 31517 ft | 438 kts | 150° |
| 2026-05-08 13:41 | 48.21730 | 14.08168 | 30972 ft | 441 kts | 150° |
| 2026-05-08 13:42 | 48.19276 | 14.10939 | 30415 ft | 442 kts | 150° |
| 2026-05-08 13:42 | 48.16808 | 14.13720 | 29831 ft | 445 kts | 150° |
| 2026-05-08 13:42 | 48.14325 | 14.16518 | 29203 ft | 446 kts | 149° |
| 2026-05-08 13:42 | 48.11851 | 14.19310 | 28600 ft | 448 kts | 149° |
| 2026-05-08 13:43 | 48.09359 | 14.22123 | 27985 ft | 450 kts | 148° |
| 2026-05-08 13:43 | 48.06853 | 14.24947 | 27460 ft | 452 kts | 148° |
| 2026-05-08 13:43 | 48.04338 | 14.27775 | 26928 ft | 451 kts | 148° |
| 2026-05-08 13:43 | 48.01830 | 14.30587 | 26415 ft | 448 kts | 148° |
| 2026-05-08 13:44 | 47.99337 | 14.33375 | 25917 ft | 445 kts | 147° |
| 2026-05-08 13:44 | 47.96902 | 14.36094 | 25430 ft | 442 kts | 147° |
| 2026-05-08 13:44 | 47.94447 | 14.38830 | 24943 ft | 439 kts | 147° |
| 2026-05-08 13:44 | 47.92001 | 14.41551 | 24540 ft | 436 kts | 147° |
| 2026-05-08 13:45 | 47.89564 | 14.44257 | 24167 ft | 435 kts | 147° |
| 2026-05-08 13:45 | 47.87140 | 14.46949 | 23794 ft | 432 kts | 147° |
| 2026-05-08 13:45 | 47.84756 | 14.49599 | 23385 ft | 430 kts | 146° |
| 2026-05-08 13:45 | 47.82359 | 14.52262 | 22936 ft | 428 kts | 146° |
| 2026-05-08 13:46 | 47.79976 | 14.54903 | 22504 ft | 426 kts | 146° |
| 2026-05-08 13:46 | 47.77607 | 14.57527 | 22076 ft | 423 kts | 146° |
| 2026-05-08 13:46 | 47.75242 | 14.60143 | 21654 ft | 421 kts | 146° |
| 2026-05-08 13:46 | 47.72890 | 14.62737 | 21238 ft | 418 kts | 146° |
| 2026-05-08 13:47 | 47.70587 | 14.65271 | 20824 ft | 416 kts | 146° |
| 2026-05-08 13:47 | 47.68267 | 14.67825 | 20425 ft | 413 kts | 146° |
| 2026-05-08 13:47 | 47.65960 | 14.70367 | 20023 ft | 410 kts | 146° |
| 2026-05-08 13:47 | 47.63687 | 14.72869 | 19634 ft | 408 kts | 146° |
| 2026-05-08 13:48 | 47.61408 | 14.75378 | 19246 ft | 407 kts | 146° |
| 2026-05-08 13:48 | 47.59139 | 14.77871 | 18860 ft | 405 kts | 146° |
| 2026-05-08 13:48 | 47.56873 | 14.80357 | 18481 ft | 403 kts | 146° |
| 2026-05-08 13:48 | 47.54620 | 14.82822 | 18069 ft | 401 kts | 146° |
| 2026-05-08 13:49 | 47.52406 | 14.85237 | 17643 ft | 398 kts | 146° |
| 2026-05-08 13:49 | 47.50185 | 14.87659 | 17221 ft | 395 kts | 146° |
| 2026-05-08 13:49 | 47.47977 | 14.90073 | 16796 ft | 392 kts | 145° |
| 2026-05-08 13:49 | 47.45790 | 14.92460 | 16377 ft | 389 kts | 145° |
| 2026-05-08 13:50 | 47.43616 | 14.94829 | 15965 ft | 386 kts | 145° |
| 2026-05-08 13:50 | 47.41486 | 14.97146 | 15566 ft | 383 kts | 145° |
| 2026-05-08 13:50 | 47.39342 | 14.99473 | 15168 ft | 380 kts | 145° |
| 2026-05-08 13:50 | 47.37205 | 15.01792 | 14781 ft | 377 kts | 145° |
| 2026-05-08 13:51 | 47.35112 | 15.04052 | 14402 ft | 375 kts | 145° |
| 2026-05-08 13:51 | 47.32996 | 15.06284 | 14020 ft | 369 kts | 146° |
| 2026-05-08 13:51 | 47.30913 | 15.08449 | 13657 ft | 360 kts | 146° |
| 2026-05-08 13:51 | 47.28883 | 15.10545 | 13333 ft | 350 kts | 146° |
| 2026-05-08 13:52 | 47.26932 | 15.12555 | 12960 ft | 343 kts | 146° |
| 2026-05-08 13:52 | 47.25002 | 15.14547 | 12597 ft | 335 kts | 146° |
| 2026-05-08 13:52 | 47.23111 | 15.16503 | 12236 ft | 328 kts | 146° |
| 2026-05-08 13:52 | 47.21250 | 15.18430 | 11873 ft | 324 kts | 146° |
| 2026-05-08 13:53 | 47.19421 | 15.20326 | 11515 ft | 320 kts | 147° |
| 2026-05-08 13:53 | 47.17611 | 15.22200 | 11171 ft | 316 kts | 146° |
| 2026-05-08 13:53 | 47.15835 | 15.24035 | 10825 ft | 314 kts | 146° |
| 2026-05-08 13:53 | 47.14060 | 15.25872 | 10481 ft | 311 kts | 146° |
| 2026-05-08 13:54 | 47.12212 | 15.27495 | 10148 ft | 307 kts | 157° |
| 2026-05-08 13:54 | 47.10191 | 15.28455 | 9802 ft | 303 kts | 169° |
| 2026-05-08 13:54 | 47.08124 | 15.29018 | 9432 ft | 301 kts | 170° |
| 2026-05-08 13:54 | 47.06071 | 15.29579 | 9077 ft | 298 kts | 170° |
| 2026-05-08 13:55 | 47.04053 | 15.30134 | 8705 ft | 296 kts | 170° |
| 2026-05-08 13:55 | 47.02034 | 15.30694 | 8345 ft | 293 kts | 170° |
| 2026-05-08 13:55 | 46.98071 | 15.31775 | 7644 ft | 288 kts | 170° |
| 2026-05-08 13:56 | 46.96109 | 15.32294 | 7296 ft | 285 kts | 170° |
| 2026-05-08 13:56 | 46.94160 | 15.32813 | 6958 ft | 283 kts | 170° |
| 2026-05-08 13:56 | 46.92222 | 15.33328 | 6612 ft | 281 kts | 170° |
| 2026-05-08 13:56 | 46.90297 | 15.33835 | 6259 ft | 279 kts | 170° |
| 2026-05-08 13:57 | 46.88412 | 15.34328 | 5907 ft | 277 kts | 170° |
| 2026-05-08 13:57 | 46.86509 | 15.34812 | 5550 ft | 276 kts | 170° |
| 2026-05-08 13:57 | 46.84616 | 15.35270 | 5195 ft | 273 kts | 170° |
| 2026-05-08 13:57 | 46.82744 | 15.35716 | 4848 ft | 271 kts | 170° |
| 2026-05-08 13:58 | 46.80902 | 15.36145 | 4493 ft | 270 kts | 170° |
| 2026-05-08 13:58 | 46.79050 | 15.36559 | 4135 ft | 268 kts | 170° |
| 2026-05-08 13:58 | 46.77306 | 15.37331 | 3995 ft | 256 kts | 148° |
| 2026-05-08 13:58 | 46.76117 | 15.39121 | 3994 ft | 241 kts | 118° |
| 2026-05-08 13:59 | 46.75776 | 15.41430 | 4001 ft | 229 kts | 86° |
| 2026-05-08 13:59 | 46.76336 | 15.43514 | 3993 ft | 219 kts | 51° |
| 2026-05-08 13:59 | 46.77458 | 15.44906 | 4021 ft | 205 kts | 37° |
| 2026-05-08 13:59 | 46.78616 | 15.46027 | 4005 ft | 199 kts | 36° |
| 2026-05-08 14:00 | 46.79778 | 15.47107 | 4004 ft | 195 kts | 35° |
| 2026-05-08 14:00 | 46.80955 | 15.48118 | 4003 ft | 198 kts | 24° |
| 2026-05-08 14:00 | 46.82302 | 15.48500 | 4005 ft | 202 kts | 1° |
| 2026-05-08 14:00 | 46.83696 | 15.48199 | 3876 ft | 203 kts | 350° |
| 2026-05-08 14:01 | 46.85082 | 15.47813 | 3617 ft | 202 kts | 351° |
| 2026-05-08 14:01 | 46.86400 | 15.47450 | 3376 ft | 188 kts | 350° |
| 2026-05-08 14:01 | 46.87645 | 15.47108 | 3133 ft | 175 kts | 350° |
| 2026-05-08 14:01 | 46.88819 | 15.46787 | 2918 ft | 169 kts | 350° |
| 2026-05-08 14:02 | 46.89974 | 15.46472 | 2695 ft | 168 kts | 350° |
| 2026-05-08 14:02 | 46.91096 | 15.46164 | 2476 ft | 161 kts | 351° |
| 2026-05-08 14:02 | 46.92196 | 15.45862 | 2250 ft | 158 kts | 351° |
| 2026-05-08 14:02 | 46.93271 | 15.45567 | 2102 ft | 156 kts | 350° |
| 2026-05-08 14:03 | 46.94354 | 15.45273 | 1953 ft | 160 kts | 352° |
| 2026-05-08 14:03 | 46.95413 | 15.44985 | 1651 ft | 151 kts | 352° |
| 2026-05-08 14:03 | 46.96420 | 15.44701 | 1404 ft | 146 kts | 351° |
| 2026-05-08 14:03 | 46.97410 | 15.44429 | 1192 ft | 143 kts | 354° |
| 2026-05-08 14:04 | 46.98375 | 15.44167 | 1101 ft | 132 kts | 351° |
| 2026-05-08 14:04 | 46.99140 | 15.43958 | 1107 ft | 77 kts | 349° |
| 2026-05-08 14:04 | 46.99499 | 15.43856 | 1115 ft | 44 kts | 349° |
| 2026-05-08 14:04 | 46.99758 | 15.43873 | 1115 ft | 22 kts | 16° |
| 2026-05-08 14:05 | 46.99855 | 15.43913 | 1117 ft | 10 kts | 16° |
| 2026-05-08 14:05 | 46.99880 | 15.43926 | 1111 ft | 0 kts | 24° |
| 2026-05-08 14:05 | 46.99882 | 15.43928 | 1111 ft | 4 kts | 24° |
| 2026-05-08 14:05 | 46.99922 | 15.43986 | 1114 ft | 11 kts | 62° |
| 2026-05-08 14:06 | 46.99933 | 15.44109 | 1111 ft | 13 kts | 110° |
| 2026-05-08 14:06 | 46.99838 | 15.44164 | 1115 ft | 18 kts | 169° |
| 2026-05-08 14:06 | 46.99711 | 15.44200 | 1110 ft | 19 kts | 168° |
| 2026-05-08 14:06 | 46.99617 | 15.44266 | 1109 ft | 15 kts | 131° |
| 2026-05-08 14:07 | 46.99588 | 15.44322 | 1108 ft | 0 kts | 125° |